createdAt,value
2017-11-01T00:00:45.251Z,6.5
2017-11-01T00:01:45.244Z,6.3
2017-11-01T00:02:45.251Z,6.6
2017-11-01T00:03:45.239Z,6.3
2017-11-01T00:04:45.238Z,6.3
2017-11-01T00:05:58.728Z,1.3
2017-11-01T00:06:58.780Z,1.9
2017-11-01T00:07:58.727Z,2.3
2017-11-01T00:08:58.753Z,2.9
2017-11-01T00:09:58.722Z,3.3
2017-11-01T00:10:58.725Z,4
2017-11-01T00:11:58.743Z,4.8
2017-11-01T00:12:58.718Z,5.4
2017-11-01T00:13:58.736Z,5.7
2017-11-01T00:14:58.715Z,6
2017-11-01T00:15:58.710Z,6
2017-11-01T00:16:58.722Z,6.2
2017-11-01T00:17:58.708Z,7.4
2017-11-01T00:18:58.698Z,7.7
2017-11-01T00:19:58.723Z,8.5
2017-11-01T00:20:58.720Z,8.6
2017-11-01T00:21:58.710Z,9.2
2017-11-01T00:22:58.709Z,9.1
2017-11-01T00:23:58.722Z,9.8
2017-11-01T00:24:58.695Z,10.1
2017-11-01T00:25:58.723Z,10.2
2017-11-01T00:26:58.721Z,10
2017-11-01T00:27:58.710Z,9.9
2017-11-01T00:28:58.708Z,10
2017-11-01T00:29:58.714Z,10
2017-11-01T00:30:58.694Z,9.9
2017-11-01T00:31:58.712Z,10.4
2017-11-01T00:32:58.694Z,10.8
2017-11-01T00:33:58.712Z,11.2
2017-11-01T00:34:58.690Z,11.1
2017-11-01T00:35:58.696Z,12.3
2017-11-01T00:36:58.704Z,12.4
2017-11-01T00:37:58.688Z,13.1
2017-11-01T00:38:58.689Z,13.6
2017-11-01T00:39:58.711Z,13.8
2017-11-01T00:40:58.704Z,14.3
2017-11-01T00:41:58.699Z,14.7
2017-11-01T00:42:58.717Z,14.9
2017-11-01T00:43:58.710Z,15.3
2017-11-01T00:44:58.700Z,15
2017-11-01T00:45:58.700Z,15.3
2017-11-01T00:46:58.705Z,16.1
2017-11-01T00:47:58.686Z,16.5
2017-11-01T00:48:58.723Z,16
2017-11-01T00:49:58.704Z,15.9
2017-11-01T00:50:58.701Z,15.7
2017-11-01T00:51:58.719Z,15.5
2017-11-01T00:52:58.729Z,15.7
2017-11-01T00:53:58.727Z,16
2017-11-01T00:54:58.708Z,16
2017-11-01T00:55:58.722Z,16.1
2017-11-01T00:56:58.716Z,16.4
2017-11-01T00:57:58.693Z,16.6
2017-11-01T00:58:58.722Z,16.1
2017-11-01T00:59:58.690Z,15.8
2017-11-01T01:00:58.694Z,16.1
2017-11-01T01:01:58.715Z,16.1
2017-11-01T01:02:58.713Z,16.1
2017-11-01T01:03:58.692Z,16.1
2017-11-01T01:04:58.698Z,15.9
2017-11-01T01:05:58.701Z,15.8
2017-11-01T01:06:58.697Z,15.9
2017-11-01T01:07:58.723Z,15.6
2017-11-01T01:08:58.710Z,15.5
2017-11-01T01:09:58.693Z,14.8
2017-11-01T01:10:58.703Z,14.8
2017-11-01T01:11:58.719Z,14.1
2017-11-01T01:12:58.724Z,13.8
2017-11-01T01:13:58.713Z,13.1
2017-11-01T01:14:58.692Z,13.1
2017-11-01T01:15:58.719Z,12.6
2017-11-01T01:16:58.688Z,12.4
2017-11-01T01:17:58.718Z,12.4
2017-11-01T01:18:58.688Z,12
2017-11-01T01:19:58.691Z,11.8
2017-11-01T01:20:58.726Z,11.7
2017-11-01T01:21:58.681Z,11.7
2017-11-01T01:22:58.707Z,11.4
2017-11-01T01:23:58.708Z,11.3
2017-11-01T01:24:58.708Z,11.6
2017-11-01T01:25:58.703Z,11.4
2017-11-01T01:26:58.709Z,11.3
2017-11-01T01:27:58.714Z,11.2
2017-11-01T01:28:58.705Z,11.1
2017-11-01T01:29:58.705Z,11.6
2017-11-01T01:30:58.701Z,11.5
2017-11-01T01:31:58.708Z,11.7
2017-11-01T01:32:58.706Z,12.2
2017-11-01T01:33:58.736Z,12.1
2017-11-01T01:34:58.709Z,12.1
2017-11-01T01:35:58.709Z,12.3
2017-11-01T01:36:58.700Z,12.5
2017-11-01T01:37:58.681Z,12.6
2017-11-01T01:38:58.685Z,12.8
2017-11-01T01:39:58.698Z,13.1
2017-11-01T01:40:58.713Z,13.9
2017-11-01T01:41:58.710Z,14
2017-11-01T01:42:58.698Z,14
2017-11-01T01:43:58.696Z,14
2017-11-01T01:44:58.674Z,14.1
2017-11-01T01:45:58.676Z,14.3
2017-11-01T01:46:58.676Z,14.7
2017-11-01T01:47:58.684Z,14.7
2017-11-01T01:48:58.700Z,14.9
2017-11-01T01:49:58.678Z,14.9
2017-11-01T01:50:58.673Z,15.1
2017-11-01T01:51:58.672Z,15.3
2017-11-01T01:52:58.700Z,15.2
2017-11-01T01:53:58.697Z,14.9
2017-11-01T01:54:58.696Z,14.8
2017-11-01T01:55:58.697Z,15.1
2017-11-01T01:56:58.696Z,14.7
2017-11-01T01:57:58.695Z,14.6
2017-11-01T01:58:58.703Z,14.2
2017-11-01T01:59:58.673Z,13.9
2017-11-01T02:00:58.702Z,13.8
2017-11-01T02:01:58.665Z,13.5
2017-11-01T02:02:58.663Z,13.1
2017-11-01T02:03:58.672Z,12.9
2017-11-01T02:04:58.690Z,13
2017-11-01T02:05:58.691Z,13.1
2017-11-01T02:06:58.696Z,13.5
2017-11-01T02:07:58.687Z,13.4
2017-11-01T02:08:58.663Z,13.6
2017-11-01T02:09:58.667Z,13.4
2017-11-01T02:10:58.695Z,13.6
2017-11-01T02:11:58.670Z,13.8
2017-11-01T02:12:58.735Z,13.7
2017-11-01T02:13:58.696Z,13.8
2017-11-01T02:14:58.665Z,13.3
2017-11-01T02:15:58.672Z,13.3
2017-11-01T02:16:58.667Z,13.5
2017-11-01T02:17:58.703Z,13.4
2017-11-01T02:18:58.687Z,13.3
2017-11-01T02:19:58.665Z,13.4
2017-11-01T02:20:58.671Z,13.7
2017-11-01T02:21:58.664Z,13.3
2017-11-01T02:22:58.724Z,13.5
2017-11-01T02:23:58.696Z,13.6
2017-11-01T02:24:58.663Z,13.3
2017-11-01T02:25:58.678Z,13.6
2017-11-01T02:26:58.668Z,13.6
2017-11-01T02:27:58.710Z,13.6
2017-11-01T02:28:58.668Z,13.4
2017-11-01T02:29:58.664Z,13.1
2017-11-01T02:30:58.652Z,13
2017-11-01T02:32:21.176Z,1.2
2017-11-01T02:33:21.250Z,2.4
2017-11-01T02:34:21.188Z,3
2017-11-01T02:35:21.199Z,4.1
2017-11-01T02:36:21.183Z,4.7
2017-11-01T02:37:21.185Z,5.6
2017-11-01T02:38:21.353Z,6.2
2017-11-01T02:39:21.210Z,7.1
2017-11-01T02:40:21.183Z,7.7
2017-11-01T02:41:21.181Z,9.2
2017-11-01T02:42:21.178Z,9.4
2017-11-01T02:43:21.249Z,9.9
2017-11-01T02:44:21.187Z,10.2
2017-11-01T02:45:21.197Z,10.7
2017-11-01T02:46:21.170Z,10.7
2017-11-01T02:47:21.204Z,10.8
2017-11-01T02:48:21.247Z,10.4
2017-11-01T02:49:21.198Z,10
2017-11-01T02:50:21.173Z,9.9
2017-11-01T02:51:21.185Z,10.1
2017-11-01T02:52:21.172Z,10.5
2017-11-01T02:53:21.228Z,10.6
2017-11-01T02:54:21.167Z,10.6
2017-11-01T02:55:21.162Z,10.4
2017-11-01T02:56:21.207Z,10.3
2017-11-01T02:57:21.208Z,9.6
2017-11-01T02:58:21.227Z,9.6
2017-11-01T02:59:21.170Z,9.2
2017-11-01T03:00:21.178Z,9
2017-11-01T03:01:21.169Z,9.1
2017-11-01T03:02:21.191Z,9.1
2017-11-01T03:03:21.222Z,9.1
2017-11-01T03:04:21.191Z,8.7
2017-11-01T03:05:21.169Z,9.3
2017-11-01T03:06:21.165Z,9.2
2017-11-01T03:07:21.175Z,9.2
2017-11-01T03:08:21.210Z,9.5
2017-11-01T03:09:21.167Z,9.8
2017-11-01T03:10:21.164Z,9.6
2017-11-01T03:11:21.200Z,9.7
2017-11-01T03:12:21.171Z,9.9
2017-11-01T03:13:21.165Z,10.1
2017-11-01T03:14:21.196Z,10.7
2017-11-01T03:15:21.170Z,10.7
2017-11-01T03:16:21.195Z,10.8
2017-11-01T03:17:21.189Z,11
2017-11-01T03:18:21.157Z,11.2
2017-11-01T03:19:21.174Z,10.9
2017-11-01T03:20:21.189Z,11.2
2017-11-01T03:21:21.186Z,11.3
2017-11-01T03:22:21.166Z,11.7
2017-11-01T03:23:21.180Z,11.6
2017-11-01T03:24:21.159Z,11.6
2017-11-01T03:25:21.163Z,11.8
2017-11-01T03:26:21.187Z,11.9
2017-11-01T03:27:21.185Z,11.9
2017-11-01T03:28:21.196Z,11.8
2017-11-01T03:29:21.157Z,11.6
2017-11-01T03:30:21.168Z,11.6
2017-11-01T03:31:21.191Z,12
2017-11-01T03:32:21.159Z,12.1
2017-11-01T03:33:21.161Z,11.7
2017-11-01T03:34:21.155Z,11.6
2017-11-01T03:35:21.183Z,11.4
2017-11-01T03:36:21.181Z,11.4
2017-11-01T03:37:21.180Z,11.2
2017-11-01T03:38:21.150Z,10.9
2017-11-01T03:39:21.172Z,10.2
2017-11-01T03:40:21.184Z,9.9
2017-11-01T03:41:21.152Z,9.8
2017-11-01T03:42:21.182Z,9.7
2017-11-01T03:43:21.168Z,9.9
2017-11-01T03:44:21.185Z,9.8
2017-11-01T03:45:21.144Z,9.6
2017-11-01T03:46:21.157Z,9.4
2017-11-01T03:47:21.142Z,8.9
2017-11-01T03:48:21.146Z,9
2017-11-01T03:49:21.168Z,8.6
2017-11-01T03:50:21.177Z,8.6
2017-11-01T03:51:21.173Z,8.1
2017-11-01T03:52:21.179Z,8.3
2017-11-01T03:53:21.150Z,8.1
2017-11-01T03:54:21.168Z,8.1
2017-11-01T03:55:21.171Z,8.1
2017-11-01T03:56:21.147Z,8.4
2017-11-01T03:57:21.171Z,8.2
2017-11-01T03:58:21.153Z,8.2
2017-11-01T03:59:21.182Z,8
2017-11-01T04:00:21.149Z,7.5
2017-11-01T04:01:21.167Z,7.2
2017-11-01T04:02:21.174Z,6.8
2017-11-01T04:03:21.141Z,6.4
2017-11-01T04:04:21.212Z,6.1
2017-11-01T04:05:21.141Z,5.9
2017-11-01T04:06:21.147Z,6.2
2017-11-01T04:07:21.165Z,6.1
2017-11-01T04:08:21.169Z,6
2017-11-01T04:09:21.223Z,6
2017-11-01T04:10:21.173Z,5.8
2017-11-01T04:11:21.138Z,5.7
2017-11-01T04:12:21.147Z,5.8
2017-11-01T04:13:21.138Z,5.8
2017-11-01T04:14:21.208Z,6
2017-11-01T04:15:21.168Z,6
2017-11-01T04:16:21.148Z,6.1
2017-11-01T04:17:21.162Z,6
2017-11-01T04:18:21.164Z,5.9
2017-11-01T04:19:21.205Z,5.8
2017-11-01T04:20:21.163Z,5.7
2017-11-01T04:21:21.134Z,5.8
2017-11-01T04:22:21.160Z,6.3
2017-11-01T04:23:21.160Z,5.9
2017-11-01T04:24:21.209Z,6.1
2017-11-01T04:25:21.154Z,5.7
2017-11-01T04:26:21.130Z,5.4
2017-11-01T04:27:21.130Z,5
2017-11-01T04:28:21.158Z,5
2017-11-01T04:29:21.229Z,5.2
2017-11-01T04:30:21.162Z,5.8
2017-11-01T04:31:21.158Z,6.1
2017-11-01T04:32:21.161Z,6.2
2017-11-01T04:33:21.157Z,6.7
2017-11-01T04:34:21.180Z,7.2
2017-11-01T04:35:21.156Z,7.6
2017-11-01T04:36:21.159Z,7.4
2017-11-01T04:37:21.156Z,7.2
2017-11-01T04:38:21.162Z,7.2
2017-11-01T04:39:21.185Z,7.6
2017-11-01T04:40:21.150Z,7.6
2017-11-01T04:41:21.120Z,7.4
2017-11-01T04:42:21.135Z,7
2017-11-01T04:43:21.150Z,6.6
2017-11-01T04:44:21.220Z,6.7
2017-11-01T04:45:21.129Z,6.7
2017-11-01T04:46:21.156Z,6.6
2017-11-01T04:47:21.155Z,6.2
2017-11-01T04:48:21.129Z,5.8
2017-11-01T04:49:21.193Z,5.8
2017-11-01T04:50:21.142Z,6
2017-11-01T04:51:21.147Z,6.4
2017-11-01T04:52:21.129Z,6.2
2017-11-01T04:53:21.119Z,6.1
2017-11-01T04:54:21.192Z,6.3
2017-11-01T04:55:21.138Z,6
2017-11-01T04:56:21.145Z,6.2
2017-11-01T04:57:21.124Z,6
2017-11-01T04:58:21.116Z,5.8
2017-11-01T04:59:21.187Z,6.3
2017-11-01T05:00:21.151Z,6
2017-11-01T05:01:21.121Z,5.8
2017-11-01T05:02:21.149Z,5.6
2017-11-01T05:03:21.141Z,5.4
2017-11-01T05:04:21.210Z,5.3
2017-11-01T05:05:21.120Z,5.5
2017-11-01T05:06:21.131Z,5.2
2017-11-01T05:07:21.116Z,5.3
2017-11-01T05:08:21.121Z,5.4
2017-11-01T05:09:21.166Z,5.2
2017-11-01T05:10:21.116Z,5.5
2017-11-01T05:11:21.145Z,5.6
2017-11-01T05:12:21.109Z,5.3
2017-11-01T05:13:21.141Z,5.1
2017-11-01T05:14:21.186Z,4.8
2017-11-01T05:15:21.117Z,4.8
2017-11-01T05:16:21.133Z,4.7
2017-11-01T05:17:21.137Z,4.3
2017-11-01T05:18:21.122Z,4.1
2017-11-01T05:19:21.330Z,4.2
2017-11-01T05:20:21.156Z,4.3
2017-11-01T05:21:21.121Z,4.3
2017-11-01T05:22:21.146Z,4.2
2017-11-01T05:23:21.111Z,4
2017-11-01T05:24:21.104Z,3.8
2017-11-01T05:25:21.111Z,3.6
2017-11-01T05:26:21.097Z,3.5
2017-11-01T05:27:21.108Z,3.4
2017-11-01T05:28:24.773Z,3.2
2017-11-01T05:29:21.096Z,3.2
2017-11-01T05:30:21.106Z,3.2
2017-11-01T05:31:21.129Z,3.1
2017-11-01T05:32:21.133Z,3
2017-11-01T05:33:21.134Z,3.1
2017-11-01T05:34:21.115Z,3.1
2017-11-01T05:35:21.113Z,3.3
2017-11-01T05:36:21.119Z,3.4
2017-11-01T05:37:21.135Z,3.4
2017-11-01T05:38:21.126Z,3.6
2017-11-01T05:39:21.115Z,3.5
2017-11-01T05:40:21.094Z,3.3
2017-11-01T05:41:21.127Z,3.2
2017-11-01T05:42:21.102Z,3.2
2017-11-01T05:43:21.130Z,3.1
2017-11-01T05:44:21.129Z,3
2017-11-01T05:45:21.149Z,3.1
2017-11-01T05:46:21.102Z,3.1
2017-11-01T05:47:21.101Z,3.1
2017-11-01T05:48:21.124Z,3.1
2017-11-01T05:49:21.096Z,2.9
2017-11-01T05:50:21.144Z,2.7
2017-11-01T05:51:21.094Z,2.7
2017-11-01T05:52:21.101Z,2.8
2017-11-01T05:53:21.118Z,2.6
2017-11-01T05:54:21.117Z,2.5
2017-11-01T05:55:21.194Z,2.4
2017-11-01T05:56:21.121Z,2.5
2017-11-01T05:57:21.116Z,2.6
2017-11-01T05:58:21.099Z,2.8
2017-11-01T05:59:21.099Z,2.8
2017-11-01T06:00:21.173Z,2.9
2017-11-01T06:01:21.093Z,2.8
2017-11-01T06:02:21.128Z,2.7
2017-11-01T06:03:21.087Z,2.8
2017-11-01T06:04:21.086Z,2.7
2017-11-01T06:05:21.167Z,2.8
2017-11-01T06:06:21.120Z,2.8
2017-11-01T06:07:21.105Z,3.1
2017-11-01T06:08:21.107Z,3
2017-11-01T06:09:21.090Z,2.8
2017-11-01T06:10:21.141Z,2.5
2017-11-01T06:11:21.108Z,2.5
2017-11-01T06:12:21.119Z,2.3
2017-11-01T06:13:21.126Z,2.2
2017-11-01T06:14:21.096Z,2.6
2017-11-01T06:15:21.134Z,2.5
2017-11-01T06:16:21.098Z,2.5
2017-11-01T06:17:21.101Z,2.8
2017-11-01T06:18:21.089Z,2.9
2017-11-01T06:19:21.120Z,2.8
2017-11-01T06:20:21.093Z,3.1
2017-11-01T06:21:21.093Z,3.1
2017-11-01T06:22:21.155Z,3.5
2017-11-01T06:23:21.112Z,3.5
2017-11-01T06:24:21.113Z,3.5
2017-11-01T06:25:21.081Z,3.3
2017-11-01T06:26:21.096Z,3.4
2017-11-01T06:27:21.074Z,3.5
2017-11-01T06:28:21.117Z,3.2
2017-11-01T06:29:21.107Z,3.1
2017-11-01T06:30:21.112Z,3.2
2017-11-01T06:31:21.106Z,3.2
2017-11-01T06:32:21.109Z,2.9
2017-11-01T06:33:21.115Z,2.8
2017-11-01T06:34:21.088Z,2.8
2017-11-01T06:35:21.108Z,2.8
2017-11-01T06:36:21.087Z,3
2017-11-01T06:37:21.086Z,2.8
2017-11-01T06:38:21.144Z,2.7
2017-11-01T06:39:21.106Z,2.5
2017-11-01T06:40:21.078Z,2.4
2017-11-01T06:41:21.100Z,2.2
2017-11-01T06:42:21.102Z,2.2
2017-11-01T06:43:21.081Z,2.1
2017-11-01T06:44:21.075Z,2.1
2017-11-01T06:45:21.082Z,2.2
2017-11-01T06:46:21.099Z,2.2
2017-11-01T06:47:21.075Z,2.5
2017-11-01T06:48:21.100Z,2.4
2017-11-01T06:49:21.100Z,2.4
2017-11-01T06:50:21.096Z,2.4
2017-11-01T06:51:21.116Z,2.2
2017-11-01T06:52:21.071Z,2.3
2017-11-01T06:53:21.063Z,2.3
2017-11-01T06:54:21.091Z,2.5
2017-11-01T06:55:21.104Z,2.3
2017-11-01T06:56:21.078Z,2.3
2017-11-01T06:57:21.105Z,2.4
2017-11-01T06:58:21.103Z,2.3
2017-11-01T06:59:21.095Z,2.2
2017-11-01T07:00:21.070Z,2.2
2017-11-01T07:01:21.096Z,2.3
2017-11-01T07:02:21.092Z,2.4
2017-11-01T07:03:21.066Z,2.6
2017-11-01T07:04:21.075Z,2.5
2017-11-01T07:05:21.090Z,2.3
2017-11-01T07:06:21.094Z,2.2
2017-11-01T07:07:21.071Z,2.4
2017-11-01T07:08:21.067Z,2.9
2017-11-01T07:09:21.091Z,3.2
2017-11-01T07:10:21.094Z,3.3
2017-11-01T07:11:21.088Z,3.5
2017-11-01T07:12:21.084Z,4.1
2017-11-01T07:13:21.090Z,4.2
2017-11-01T07:14:21.063Z,4
2017-11-01T07:15:21.069Z,4.6
2017-11-01T07:16:21.079Z,4.6
2017-11-01T07:17:21.072Z,4.8
2017-11-01T07:18:21.075Z,4.5
2017-11-01T07:19:21.070Z,4.3
2017-11-01T07:20:21.068Z,4
2017-11-01T07:21:21.088Z,4.2
2017-11-01T07:22:21.067Z,4.4
2017-11-01T07:23:21.074Z,4.5
2017-11-01T07:24:21.068Z,4.2
2017-11-01T07:25:21.073Z,4.3
2017-11-01T07:26:21.092Z,4.5
2017-11-01T07:27:21.076Z,4.7
2017-11-01T07:28:21.081Z,4.4
2017-11-01T07:29:21.074Z,4.2
2017-11-01T07:30:21.055Z,4.2
2017-11-01T07:31:21.132Z,4.2
2017-11-01T07:32:21.085Z,4.3
2017-11-01T07:33:21.063Z,4.4
2017-11-01T07:34:21.077Z,4.3
2017-11-01T07:35:21.070Z,4
2017-11-01T07:36:21.139Z,3.7
2017-11-01T07:37:21.082Z,3.9
2017-11-01T07:38:21.094Z,3.5
2017-11-01T07:39:21.060Z,3.3
2017-11-01T07:40:21.050Z,3.1
2017-11-01T07:41:21.113Z,3.3
2017-11-01T07:42:21.060Z,3.3
2017-11-01T07:43:21.078Z,3.3
2017-11-01T07:44:21.085Z,3.1
2017-11-01T07:45:21.059Z,3.2
2017-11-01T07:46:21.132Z,3.5
2017-11-01T07:47:21.081Z,3.2
2017-11-01T07:48:21.027Z,3.3
2017-11-01T07:49:21.061Z,3.4
2017-11-01T07:50:21.074Z,3.7
2017-11-01T07:51:21.110Z,3.8
2017-11-01T07:52:21.069Z,3.6
2017-11-01T07:53:21.086Z,3.6
2017-11-01T07:54:21.075Z,3.5
2017-11-01T07:55:21.075Z,3.3
2017-11-01T07:56:21.094Z,3.1
2017-11-01T07:57:21.069Z,2.9
2017-11-01T07:58:21.058Z,3.2
2017-11-01T07:59:21.055Z,3.5
2017-11-01T08:00:21.057Z,3.6
2017-11-01T08:01:21.049Z,3.3
2017-11-01T08:02:21.110Z,3.3
2017-11-01T08:03:21.050Z,3.2
2017-11-01T08:04:21.076Z,3
2017-11-01T08:05:21.041Z,2.9
2017-11-01T08:06:21.049Z,2.8
2017-11-01T08:07:21.048Z,2.9
2017-11-01T08:08:21.067Z,3
2017-11-01T08:09:21.043Z,3.1
2017-11-01T08:10:21.041Z,3.1
2017-11-01T08:11:21.052Z,3.1
2017-11-01T08:12:21.044Z,3.2
2017-11-01T08:13:21.049Z,3.5
2017-11-01T08:14:21.046Z,3.9
2017-11-01T08:15:21.042Z,3.9
2017-11-01T08:16:21.046Z,3.9
2017-11-01T08:17:21.092Z,3.9
2017-11-01T08:18:21.066Z,4
2017-11-01T08:19:21.032Z,3.7
2017-11-01T08:20:21.066Z,3.4
2017-11-01T08:21:21.065Z,3.2
2017-11-01T08:22:21.048Z,3.2
2017-11-01T08:23:21.079Z,3
2017-11-01T08:24:21.065Z,3.1
2017-11-01T08:25:21.038Z,2.8
2017-11-01T08:26:21.038Z,3.1
2017-11-01T08:27:21.043Z,2.9
2017-11-01T08:28:21.040Z,3
2017-11-01T08:29:21.068Z,3.5
2017-11-01T08:30:21.066Z,3.5
2017-11-01T08:31:21.076Z,3.2
2017-11-01T08:32:21.092Z,3.8
2017-11-01T08:33:21.032Z,4.4
2017-11-01T08:34:21.031Z,4.7
2017-11-01T08:35:21.061Z,4.6
2017-11-01T08:36:21.030Z,4.3
2017-11-01T08:37:21.079Z,4.2
2017-11-01T08:38:21.035Z,4.4
2017-11-01T08:39:21.045Z,4.3
2017-11-01T08:40:21.058Z,3.9
2017-11-01T08:41:21.057Z,3.6
2017-11-01T08:42:21.337Z,3.3
2017-11-01T08:43:21.032Z,3.1
2017-11-01T08:44:21.038Z,3.1
2017-11-01T08:45:21.036Z,3.3
2017-11-01T08:46:21.063Z,3.3
2017-11-01T08:47:21.128Z,3.9
2017-11-01T08:48:21.053Z,3.9
2017-11-01T08:49:21.096Z,4.1
2017-11-01T08:50:21.054Z,4.1
2017-11-01T08:51:21.036Z,4
2017-11-01T08:52:21.132Z,3.9
2017-11-01T08:53:21.057Z,3.7
2017-11-01T08:54:21.047Z,3.4
2017-11-01T08:55:21.056Z,3.5
2017-11-01T08:56:21.044Z,3.4
2017-11-01T08:57:21.077Z,3.8
2017-11-01T08:58:21.033Z,3.9
2017-11-01T08:59:21.032Z,3.8
2017-11-01T09:00:21.101Z,3.9
2017-11-01T09:01:21.053Z,3.7
2017-11-01T09:02:21.054Z,4.4
2017-11-01T09:03:21.057Z,4.7
2017-11-01T09:04:21.054Z,4.6
2017-11-01T09:05:21.054Z,4.7
2017-11-01T09:06:21.028Z,4.5
2017-11-01T09:07:21.050Z,4.6
2017-11-01T09:08:21.027Z,4.5
2017-11-01T09:09:21.036Z,4.4
2017-11-01T09:10:21.065Z,4.8
2017-11-01T09:11:21.035Z,4.9
2017-11-01T09:12:21.048Z,4.6
2017-11-01T09:13:21.047Z,4.4
2017-11-01T09:14:21.047Z,4.1
2017-11-01T09:15:21.027Z,3.9
2017-11-01T09:16:21.041Z,3.6
2017-11-01T09:17:21.020Z,3.5
2017-11-01T09:18:21.031Z,3.6
2017-11-01T09:19:21.024Z,3.5
2017-11-01T09:20:21.027Z,3.3
2017-11-01T09:21:21.018Z,3.5
2017-11-01T09:22:21.044Z,3.9
2017-11-01T09:23:21.050Z,4
2017-11-01T09:24:21.045Z,4.3
2017-11-01T09:25:21.050Z,4.4
2017-11-01T09:26:21.021Z,4.1
2017-11-01T09:27:21.043Z,4.4
2017-11-01T09:28:21.025Z,4.6
2017-11-01T09:29:21.051Z,4.2
2017-11-01T09:30:21.041Z,4.7
2017-11-01T09:31:21.044Z,4.3
2017-11-01T09:32:21.058Z,4.5
2017-11-01T09:33:21.053Z,4.7
2017-11-01T09:34:21.056Z,4.4
2017-11-01T09:35:21.042Z,4.3
2017-11-01T09:36:21.046Z,4
2017-11-01T09:37:21.026Z,3.9
2017-11-01T09:38:21.021Z,3.7
2017-11-01T09:39:21.017Z,3.5
2017-11-01T09:40:21.022Z,3.4
2017-11-01T09:41:21.039Z,3.1
2017-11-01T09:42:21.019Z,2.8
2017-11-01T09:43:21.012Z,2.8
2017-11-01T09:44:21.041Z,2.5
2017-11-01T09:45:21.019Z,2.3
2017-11-01T09:46:21.022Z,2.2
2017-11-01T09:47:21.038Z,2.1
2017-11-01T09:48:21.036Z,2.4
2017-11-01T09:49:21.041Z,2.4
2017-11-01T09:50:21.033Z,2.5
2017-11-01T09:51:21.028Z,2.4
2017-11-01T09:52:21.019Z,2.6
2017-11-01T09:53:21.016Z,3.2
2017-11-01T09:54:21.015Z,3.8
2017-11-01T09:55:21.039Z,4.1
2017-11-01T09:56:21.039Z,4.2
2017-11-01T09:57:21.006Z,4.3
2017-11-01T09:58:21.092Z,4.3
2017-11-01T09:59:21.017Z,4.2
2017-11-01T10:00:21.028Z,4.1
2017-11-01T10:01:21.016Z,4.6
2017-11-01T10:02:21.032Z,5
2017-11-01T10:03:21.063Z,5.1
2017-11-01T10:04:21.037Z,5.4
2017-11-01T10:05:21.020Z,5.9
2017-11-01T10:06:21.013Z,5.9
2017-11-01T10:07:21.035Z,6.6
2017-11-01T10:08:21.061Z,6.7
2017-11-01T10:09:21.037Z,6.2
2017-11-01T10:10:21.032Z,6
2017-11-01T10:11:21.009Z,5.9
2017-11-01T10:12:21.032Z,5.4
2017-11-01T10:13:21.079Z,5
2017-11-01T10:14:21.006Z,4.9
2017-11-01T10:15:21.034Z,4.7
2017-11-01T10:16:21.028Z,4.6
2017-11-01T10:17:21.029Z,4.4
2017-11-01T10:18:21.023Z,4.2
2017-11-01T10:19:21.030Z,3.8
2017-11-01T10:20:21.037Z,3.5
2017-11-01T10:21:21.022Z,3.2
2017-11-01T10:22:21.003Z,3.2
2017-11-01T10:23:21.031Z,3.3
2017-11-01T10:24:21.000Z,3.3
2017-11-01T10:25:21.016Z,3.4
2017-11-01T10:26:21.019Z,3.8
2017-11-01T10:27:21.020Z,4.3
2017-11-01T10:28:21.023Z,4.1
2017-11-01T10:29:21.026Z,3.8
2017-11-01T10:30:21.018Z,3.7
2017-11-01T10:31:21.022Z,3.5
2017-11-01T10:32:21.021Z,4.3
2017-11-01T10:33:21.028Z,4.7
2017-11-01T10:34:21.001Z,4.4
2017-11-01T10:35:21.024Z,4.2
2017-11-01T10:36:21.030Z,3.8
2017-11-01T10:37:22.974Z,3.8
2017-11-01T10:38:20.993Z,3.5
2017-11-01T10:39:21.027Z,3.4
2017-11-01T10:40:21.001Z,3.6
2017-11-01T10:41:21.018Z,3.6
2017-11-01T10:42:21.005Z,4
2017-11-01T10:43:21.027Z,5.1
2017-11-01T10:44:21.024Z,6
2017-11-01T10:45:21.046Z,5.7
2017-11-01T10:46:21.023Z,5.7
2017-11-01T10:47:20.991Z,6.8
2017-11-01T10:48:21.021Z,7.4
2017-11-01T10:49:21.067Z,7.1
2017-11-01T10:50:21.016Z,7.2
2017-11-01T10:51:21.023Z,7.4
2017-11-01T10:52:21.013Z,7.2
2017-11-01T10:53:21.022Z,7.8
2017-11-01T10:54:20.995Z,8
2017-11-01T10:55:20.989Z,7.6
2017-11-01T10:56:21.002Z,8
2017-11-01T10:57:20.982Z,8
2017-11-01T10:58:21.011Z,7.6
2017-11-01T10:59:21.022Z,7.2
2017-11-01T11:00:21.059Z,6.8
2017-11-01T11:01:20.994Z,6.6
2017-11-01T11:02:20.992Z,6.2
2017-11-01T11:03:21.016Z,6.3
2017-11-01T11:04:20.995Z,5.9
2017-11-01T11:05:21.057Z,5.6
2017-11-01T11:06:20.991Z,5.5
2017-11-01T11:07:20.995Z,5.5
2017-11-01T11:08:20.999Z,5.5
2017-11-01T11:09:20.989Z,6.2
2017-11-01T11:10:21.025Z,6.5
2017-11-01T11:11:20.987Z,6.7
2017-11-01T11:12:21.017Z,6.7
2017-11-01T11:13:21.001Z,6.9
2017-11-01T11:14:21.016Z,7.3
2017-11-01T11:15:21.063Z,7.2
2017-11-01T11:16:20.985Z,6.7
2017-11-01T11:17:20.994Z,6.6
2017-11-01T11:18:20.988Z,6.4
2017-11-01T11:19:20.992Z,6.2
2017-11-01T11:20:21.085Z,6.4
2017-11-01T11:21:20.996Z,6.6
2017-11-01T11:22:20.980Z,6
2017-11-01T11:23:20.988Z,5.8
2017-11-01T11:24:20.994Z,5.7
2017-11-01T11:25:21.052Z,5.3
2017-11-01T11:26:21.004Z,5.2
2017-11-01T11:27:21.009Z,4.9
2017-11-01T11:28:20.984Z,4.9
2017-11-01T11:29:21.014Z,4.9
2017-11-01T11:30:20.990Z,4.9
2017-11-01T11:31:21.019Z,5.2
2017-11-01T11:32:20.990Z,5
2017-11-01T11:33:21.010Z,4.9
2017-11-01T11:34:21.012Z,4.8
2017-11-01T11:35:21.020Z,5.6
2017-11-01T11:36:20.983Z,5.8
2017-11-01T11:37:20.983Z,5.7
2017-11-01T11:38:21.010Z,5.6
2017-11-01T11:39:21.011Z,5.2
2017-11-01T11:40:20.998Z,4.9
2017-11-01T11:41:21.019Z,4.9
2017-11-01T11:42:21.001Z,4.7
2017-11-01T11:43:20.987Z,4.3
2017-11-01T11:44:20.983Z,4.2
2017-11-01T11:45:20.985Z,4.1
2017-11-01T11:46:21.002Z,3.9
2017-11-01T11:47:21.000Z,3.6
2017-11-01T11:48:21.011Z,3.6
2017-11-01T11:49:21.004Z,3.5
2017-11-01T11:50:20.979Z,3.8
2017-11-01T11:51:21.008Z,3.9
2017-11-01T11:52:20.972Z,4.2
2017-11-01T11:53:21.008Z,4.2
2017-11-01T11:54:20.980Z,4.6
2017-11-01T11:55:20.985Z,4.4
2017-11-01T11:56:21.017Z,4.1
2017-11-01T11:57:20.999Z,3.8
2017-11-01T11:58:20.981Z,3.7
2017-11-01T11:59:20.967Z,3.9
2017-11-01T12:00:20.969Z,4.3
2017-11-01T12:01:21.042Z,4.3
2017-11-01T12:02:20.998Z,4.2
2017-11-01T12:03:20.984Z,4.1
2017-11-01T12:04:20.983Z,3.8
2017-11-01T12:05:20.987Z,3.6
2017-11-01T12:06:21.021Z,3.3
2017-11-01T12:07:20.994Z,3.2
2017-11-01T12:08:20.980Z,3
2017-11-01T12:09:20.994Z,3.1
2017-11-01T12:10:20.985Z,3.1
2017-11-01T12:11:21.037Z,3
2017-11-01T12:12:21.004Z,2.8
2017-11-01T12:13:21.007Z,2.6
2017-11-01T12:14:20.980Z,2.6
2017-11-01T12:15:20.971Z,2.6
2017-11-01T12:16:21.044Z,3
2017-11-01T12:17:20.963Z,3.1
2017-11-01T12:18:21.003Z,3.1
2017-11-01T12:19:21.004Z,3.1
2017-11-01T12:20:20.997Z,3.2
2017-11-01T12:21:21.048Z,3.3
2017-11-01T12:22:20.979Z,3.2
2017-11-01T12:23:21.008Z,3.3
2017-11-01T12:24:20.994Z,3.2
2017-11-01T12:25:20.992Z,3.3
2017-11-01T12:26:21.029Z,3.3
2017-11-01T12:27:20.966Z,3
2017-11-01T12:28:20.989Z,2.7
2017-11-01T12:29:20.964Z,2.6
2017-11-01T12:30:20.999Z,2.5
2017-11-01T12:31:21.019Z,2.6
2017-11-01T12:32:20.971Z,2.7
2017-11-01T12:33:21.008Z,3.3
2017-11-01T12:34:20.969Z,3.3
2017-11-01T12:35:20.988Z,3.4
2017-11-01T12:36:21.022Z,3.5
2017-11-01T12:37:20.969Z,3.6
2017-11-01T12:38:20.987Z,3.5
2017-11-01T12:39:20.970Z,3.3
2017-11-01T12:40:20.956Z,3.9
2017-11-01T12:41:21.030Z,4.7
2017-11-01T12:42:20.970Z,5
2017-11-01T12:43:20.969Z,5.6
2017-11-01T12:44:21.000Z,6
2017-11-01T12:45:20.954Z,5.6
2017-11-01T12:46:21.044Z,5.6
2017-11-01T12:47:20.968Z,5.8
2017-11-01T12:48:20.984Z,5.9
2017-11-01T12:49:20.967Z,6.2
2017-11-01T12:50:20.964Z,6.1
2017-11-01T12:51:21.059Z,6.2
2017-11-01T12:52:20.956Z,6.3
2017-11-01T12:53:20.954Z,6
2017-11-01T12:54:20.979Z,5.7
2017-11-01T12:55:20.993Z,5.5
2017-11-01T12:56:21.018Z,5.6
2017-11-01T12:57:20.953Z,5.9
2017-11-01T12:58:20.985Z,5.6
2017-11-01T13:03:21.034Z,4.8
2017-11-01T13:04:20.956Z,4.8
2017-11-01T13:05:20.990Z,4.7
2017-11-01T13:06:20.980Z,5.2
2017-11-01T13:07:20.999Z,5.1
2017-11-01T13:08:20.992Z,4.9
2017-11-01T13:09:20.956Z,4.6
2017-11-01T13:10:20.990Z,4.5
2017-11-01T13:11:20.968Z,4.2
2017-11-01T13:12:21.018Z,4.2
2017-11-01T13:13:20.947Z,4
2017-11-01T13:14:20.965Z,3.7
2017-11-01T13:15:20.974Z,3.6
2017-11-01T13:16:20.986Z,3.6
2017-11-01T13:17:21.006Z,3.6
2017-11-01T13:18:21.218Z,3.6
2017-11-01T13:19:20.955Z,3.8
2017-11-01T13:20:20.956Z,4.1
2017-11-01T13:21:20.980Z,4.4
2017-11-01T13:22:21.002Z,4.3
2017-11-01T13:23:20.974Z,4.3
2017-11-01T13:24:20.946Z,5
2017-11-01T13:25:20.964Z,5.4
2017-11-01T13:26:20.958Z,5.5
2017-11-01T13:27:21.040Z,5.5
2017-11-01T13:28:20.969Z,5.2
2017-11-01T13:29:20.981Z,6.1
2017-11-01T13:30:20.973Z,5.8
2017-11-01T13:31:20.961Z,5.7
2017-11-01T13:32:20.963Z,5.7
2017-11-01T13:33:20.955Z,6
2017-11-01T13:34:20.956Z,6.2
2017-11-01T13:35:20.956Z,5.7
2017-11-01T13:36:20.976Z,5.6
2017-11-01T13:37:20.954Z,5.7
2017-11-01T13:38:20.957Z,6
2017-11-01T13:39:20.940Z,5.6
2017-11-01T13:40:20.955Z,5.3
2017-11-01T13:41:20.948Z,4.9
2017-11-01T13:42:20.977Z,5
2017-11-01T13:43:20.978Z,4.9
2017-11-01T13:44:20.988Z,4.5
2017-11-01T13:45:20.970Z,4.5
2017-11-01T13:46:20.945Z,4.5
2017-11-01T13:47:20.975Z,4.4
2017-11-01T13:48:20.958Z,4.1
2017-11-01T13:49:20.953Z,3.7
2017-11-01T13:50:20.969Z,3.4